Carbondale, IL

1:53 AM CDT on September 20, 2014 (GMT -0500)
Southern Illinois | Change Station
CLOSE
Current Station
Airport
Location: Carbondale,
Elevation: 410 ft
Nearby Weather Stations
Active Advisory: Special Statement

Elev 410 ft 37.78 °N, 89.25 °W | Updated 10 minutes ago

Clear
Clear
55 °F
Feels Like 55 °F
N
0
Wind Variable Wind from North

Today
High -- | Low -- °F
--% Chance of Precip.
Yesterday
High -- | Low -- °F
Precip. -- in
6:43 AM 6:56 PM
Waning Crescent, 14% visible
Pressure 30.02 in
Visibility 0.2 miles
Clouds Clear
Dew Point 54 °F
Humidity 96%
Rainfall 0.00 in
Snow Depth Not available.
UV 0 out of 12
Pollen 7.40 out of 12
Air Quality Not available.
Flu Activity Not available.
SPECI KMDH 200643Z AUTO 00000KT 1/4SM FG CLR 13/12 A3002 RMK AO2 T01280122

More Conditions Fewer Conditions

Pressure 30.02 in
Visibility 0.2 miles
Clouds Clear
Dew Point 54 °F
Humidity 96%
Rainfall 0.00 in
Snow Depth Not available.
UV 0 out of 12
Pollen 7.40 out of 12
Air Quality Not available.
Flu Activity Not available.
SPECI KMDH 200643Z AUTO 00000KT 1/4SM FG CLR 13/12 A3002 RMK AO2 T01280122

More Conditions Fewer Conditions

10-Day Weather Forecast

Almanac

Astronomy

Sep. 20, 2014 Rise Set
Actual Time 6:43 AM CDT 6:56 PM CDT
Civil Twilight 6:16 AM CDT 7:23 PM CDT
Nautical Twilight 5:46 AM CDT 7:53 PM CDT
Astronomical Twilight 5:14 AM CDT 8:24 PM CDT
Moon 3:25 AM CDT 4:57 PM CDT
Length of Visible Light 13h 06m
Length of Day
12h 13m
Tomorrow will be 2m 25s shorter.
Waning Crescent, 14% of the Moon is Illuminated
Today
Waning Crescent
Sep 24
New
Oct 1
First Quarter
Oct 8
Full
Oct 15
Last Quarter

Today's Extremes

State Highs State Lows

Community

WunderPhotos

Upload Photos

1,754,779 photos uploaded!

WunderBlogs® & News

Nearby

Snow Depth

Station Depth Elevation
No new snow has been reported.

Earthquake Activity

City Distance Mag. Time & Date
No recent earthquake activity has been reported nearby.
Minimum magnitude displayed is 2.5.

Coastal Water Temperatures

Place Temperature
No Stations Reporting

Nearby Weather Stations